createdAt,value
2023-03-02T00:02:02.287Z,9.98
2023-03-02T00:04:35.952Z,10.75
2023-03-02T00:07:08.543Z,8.07
2023-03-02T00:09:38.363Z,8.00
2023-03-02T00:12:08.010Z,8.57
2023-03-02T00:14:38.046Z,12.27
2023-03-02T00:17:08.063Z,7.78
2023-03-02T00:19:37.697Z,9.40
2023-03-02T00:22:09.026Z,9.32
2023-03-02T00:24:39.303Z,7.97
2023-03-02T00:27:08.658Z,10.57
2023-03-02T00:29:37.945Z,7.95
2023-03-02T00:32:09.035Z,12.63
2023-03-02T00:34:38.310Z,7.57
2023-03-02T00:37:07.549Z,11.40
2023-03-02T00:39:36.835Z,8.93
2023-03-02T00:42:06.265Z,9.38
2023-03-02T00:44:35.540Z,9.23
2023-03-02T00:47:04.949Z,8.48
2023-03-02T00:49:34.922Z,10.77
2023-03-02T00:52:04.176Z,9.57
2023-03-02T00:54:33.815Z,16.35
2023-03-02T00:57:03.377Z,10.88
2023-03-02T00:59:32.691Z,10.10
2023-03-02T01:02:09.302Z,8.30
2023-03-02T01:04:40.780Z,8.82
2023-03-02T01:07:11.550Z,9.35
2023-03-02T01:09:41.673Z,10.32
2023-03-02T01:12:11.400Z,12.80
2023-03-02T01:14:41.846Z,11.63
2023-03-02T01:17:12.481Z,8.93
2023-03-02T01:19:42.139Z,11.13
2023-03-02T01:22:11.519Z,10.32
2023-03-02T01:24:40.827Z,7.82
2023-03-02T01:27:10.116Z,8.88
2023-03-02T01:29:39.588Z,6.82
2023-03-02T01:32:09.100Z,13.00
2023-03-02T01:34:38.421Z,9.93
2023-03-02T01:37:09.083Z,10.35
2023-03-02T01:39:38.475Z,8.35
2023-03-02T01:42:07.832Z,11.95
2023-03-02T01:44:57.353Z,8.63
2023-03-02T01:47:31.416Z,10.00
2023-03-02T01:50:22.403Z,11.05
2023-03-02T01:52:56.564Z,12.13
2023-03-02T01:55:28.309Z,11.98
2023-03-02T01:57:59.272Z,9.88
2023-03-02T02:00:31.538Z,15.18
2023-03-02T02:03:09.479Z,12.15
2023-03-02T02:05:46.598Z,11.90
2023-03-02T02:08:16.426Z,12.73
2023-03-02T02:10:46.186Z,13.45
2023-03-02T02:13:15.545Z,11.30
2023-03-02T02:15:45.227Z,13.43
2023-03-02T02:18:14.614Z,13.63
2023-03-02T02:20:45.891Z,16.13
2023-03-02T02:23:15.908Z,15.88
2023-03-02T02:25:55.504Z,16.58
2023-03-02T02:28:27.892Z,15.48
2023-03-02T02:31:16.798Z,16.42
2023-03-02T02:33:48.549Z,19.25
2023-03-02T02:36:20.837Z,22.17
2023-03-02T02:38:53.089Z,15.20
2023-03-02T02:41:29.071Z,17.52
2023-03-02T02:43:58.996Z,21.25
2023-03-02T02:46:28.895Z,18.70
2023-03-02T02:48:58.824Z,20.02
2023-03-02T02:51:31.533Z,17.77
2023-03-02T02:54:02.101Z,19.10
2023-03-02T02:56:37.218Z,20.23
2023-03-02T02:59:16.507Z,22.35
2023-03-02T03:01:46.197Z,19.85
2023-03-02T03:04:16.945Z,23.00
2023-03-02T03:06:53.916Z,25.13
2023-03-02T03:09:23.779Z,20.27
2023-03-02T03:11:54.638Z,27.52
2023-03-02T03:14:27.539Z,21.15
2023-03-02T03:16:57.593Z,27.15
2023-03-02T03:19:27.387Z,26.63
2023-03-02T03:21:58.588Z,26.75
2023-03-02T03:24:30.406Z,27.17
2023-03-02T03:27:01.094Z,22.35
2023-03-02T03:29:31.330Z,21.73
2023-03-02T03:32:04.004Z,31.05
2023-03-02T03:34:34.101Z,25.85
2023-03-02T03:37:04.343Z,27.17
2023-03-02T03:39:36.769Z,24.08
2023-03-02T03:42:07.528Z,24.33
2023-03-02T03:44:36.891Z,24.92
2023-03-02T03:47:06.370Z,28.90
2023-03-02T03:49:36.068Z,26.73
2023-03-02T03:52:06.408Z,24.92
2023-03-02T03:54:35.748Z,25.20
2023-03-02T03:57:05.340Z,30.02
2023-03-02T03:59:36.073Z,30.77
2023-03-02T04:02:06.504Z,27.50
2023-03-02T04:04:42.567Z,24.42
2023-03-02T04:07:16.500Z,27.77
2023-03-02T04:09:47.025Z,26.17
2023-03-02T04:12:18.027Z,25.15
2023-03-02T04:14:52.666Z,20.63
2023-03-02T04:17:22.148Z,27.65
2023-03-02T04:19:52.696Z,29.90
2023-03-02T04:22:22.706Z,29.92
2023-03-02T04:24:52.448Z,26.40
2023-03-02T04:27:22.691Z,27.77
2023-03-02T04:29:53.157Z,24.92
2023-03-02T04:32:23.104Z,35.97
2023-03-02T04:34:56.926Z,36.15
2023-03-02T04:37:26.753Z,34.22
2023-03-02T04:39:56.207Z,32.58
2023-03-02T04:42:25.469Z,32.67
2023-03-02T04:44:54.792Z,32.58
2023-03-02T04:47:24.221Z,36.90
2023-03-02T04:49:54.815Z,34.35
2023-03-02T04:52:25.132Z,31.75
2023-03-02T04:54:54.531Z,40.10
2023-03-02T04:57:23.877Z,30.48
2023-03-02T04:59:53.157Z,34.40
2023-03-02T05:02:22.510Z,35.97
2023-03-02T05:04:51.909Z,29.95
2023-03-02T05:07:21.266Z,38.88
2023-03-02T05:09:50.574Z,35.08
2023-03-02T05:12:21.760Z,37.42
2023-03-02T05:14:51.168Z,35.03
2023-03-02T05:17:20.437Z,38.13
2023-03-02T05:19:49.709Z,41.58
2023-03-02T05:22:18.957Z,42.47
2023-03-02T05:24:48.214Z,41.88
2023-03-02T05:27:17.464Z,35.72
2023-03-02T05:29:46.711Z,47.70
2023-03-02T05:32:16.056Z,41.33
2023-03-02T05:34:45.384Z,40.35
2023-03-02T05:37:14.686Z,43.25
2023-03-02T05:39:43.968Z,47.92
2023-03-02T05:42:13.297Z,38.17
2023-03-02T05:44:42.680Z,34.95
2023-03-02T05:47:12.277Z,35.55
2023-03-02T05:49:41.677Z,36.42
2023-03-02T05:52:10.905Z,41.13
2023-03-02T05:54:40.143Z,38.65
2023-03-02T05:57:09.426Z,40.10
2023-03-02T05:59:38.760Z,44.08
2023-03-02T06:02:08.131Z,42.00
2023-03-02T06:04:43.245Z,51.67
2023-03-02T06:07:15.919Z,34.97
2023-03-02T06:09:45.194Z,42.45
2023-03-02T06:12:14.480Z,43.95
2023-03-02T06:14:43.795Z,38.03
2023-03-02T06:17:13.192Z,38.65
2023-03-02T06:19:42.440Z,40.15
2023-03-02T06:22:11.719Z,42.60
2023-03-02T06:24:41.032Z,43.90
2023-03-02T06:27:10.439Z,39.70
2023-03-02T06:29:39.726Z,40.33
2023-03-02T06:32:10.498Z,37.20
2023-03-02T06:34:39.884Z,35.30
2023-03-02T06:37:09.220Z,38.13
2023-03-02T06:39:38.468Z,34.72
2023-03-02T06:42:07.810Z,36.72
2023-03-02T06:44:37.075Z,31.92
2023-03-02T06:47:06.403Z,37.88
2023-03-02T06:49:35.711Z,41.88
2023-03-02T06:52:06.755Z,39.92
2023-03-02T06:54:36.567Z,39.55
2023-03-02T06:57:05.966Z,35.92
2023-03-02T06:59:35.386Z,33.80
2023-03-02T07:02:04.800Z,41.50
2023-03-02T07:04:34.120Z,41.42
2023-03-02T07:07:03.610Z,43.30
2023-03-02T07:09:35.003Z,40.58
2023-03-02T07:12:04.294Z,45.42
2023-03-02T07:14:33.668Z,36.85
2023-03-02T07:17:02.948Z,37.08
2023-03-02T07:19:32.614Z,33.53
2023-03-02T07:22:01.888Z,34.88
2023-03-02T07:24:31.230Z,39.42
2023-03-02T07:27:00.564Z,31.20
2023-03-02T07:29:29.826Z,33.70
2023-03-02T07:32:02.069Z,37.88
2023-03-02T07:34:31.448Z,40.78
2023-03-02T07:37:00.750Z,33.22
2023-03-02T07:39:30.044Z,36.53
2023-03-02T07:42:04.452Z,36.60
2023-03-02T07:44:34.143Z,35.28
2023-03-02T07:47:03.603Z,37.35
2023-03-02T07:49:32.879Z,27.95
2023-03-02T07:52:02.148Z,33.10
2023-03-02T07:54:31.508Z,39.92
2023-03-02T07:57:01.265Z,34.15
2023-03-02T07:59:31.275Z,30.50
2023-03-02T08:02:00.790Z,30.70
2023-03-02T08:04:30.129Z,28.17
2023-03-02T08:06:59.373Z,42.08
2023-03-02T08:09:28.684Z,31.48
2023-03-02T08:11:58.018Z,29.90
2023-03-02T08:14:27.320Z,31.40
2023-03-02T08:16:56.611Z,27.85
2023-03-02T08:19:26.466Z,27.83
2023-03-02T08:21:55.788Z,35.70
2023-03-02T08:24:25.082Z,28.00
2023-03-02T08:26:54.515Z,24.92
2023-03-02T08:29:24.686Z,29.42
2023-03-02T08:31:54.242Z,26.20
2023-03-02T08:34:23.657Z,31.60
2023-03-02T08:36:53.014Z,30.08
2023-03-02T08:39:23.591Z,30.45
2023-03-02T08:41:53.898Z,28.02
2023-03-02T08:44:23.695Z,28.38
2023-03-02T08:46:53.721Z,26.30
2023-03-02T08:49:23.048Z,29.40
2023-03-02T08:51:53.767Z,27.05
2023-03-02T08:54:23.623Z,24.05
2023-03-02T08:56:52.870Z,26.25
2023-03-02T08:59:22.167Z,26.95
2023-03-02T09:01:51.448Z,28.52
2023-03-02T09:04:20.814Z,25.08
2023-03-02T09:06:50.193Z,22.15
2023-03-02T09:09:19.487Z,24.63
2023-03-02T09:11:48.790Z,23.38
2023-03-02T09:14:18.102Z,25.25
2023-03-02T09:16:48.090Z,27.77
2023-03-02T09:19:17.349Z,25.98
2023-03-02T09:21:46.608Z,23.92
2023-03-02T09:24:15.840Z,27.92
2023-03-02T09:26:45.152Z,24.13
2023-03-02T09:29:14.409Z,26.85
2023-03-02T09:31:43.698Z,25.23
2023-03-02T09:34:13.051Z,22.25
2023-03-02T09:36:42.308Z,26.67
2023-03-02T09:39:12.577Z,21.92
2023-03-02T09:41:41.921Z,24.38
2023-03-02T09:44:29.976Z,23.40
2023-03-02T09:47:03.134Z,20.33
2023-03-02T09:49:48.038Z,22.63
2023-03-02T09:52:34.432Z,17.95
2023-03-02T09:55:11.623Z,21.20
2023-03-02T09:57:42.141Z,21.40
2023-03-02T10:00:20.289Z,27.05
2023-03-02T10:02:50.071Z,18.77
2023-03-02T10:05:21.334Z,23.13
2023-03-02T10:07:50.789Z,23.23
2023-03-02T10:10:40.180Z,22.48
2023-03-02T10:13:40.724Z,18.42
2023-03-02T10:16:16.588Z,16.48
2023-03-02T10:18:49.075Z,18.17
2023-03-02T10:24:09.690Z,19.17
2023-03-02T10:26:41.942Z,21.08
2023-03-02T10:29:24.034Z,19.23
2023-03-02T10:31:55.774Z,18.77
2023-03-02T10:34:29.864Z,19.15
2023-03-02T10:37:00.274Z,22.90
2023-03-02T10:39:29.547Z,19.98
2023-03-02T10:42:05.078Z,20.40
2023-03-02T10:44:37.624Z,19.63
2023-03-02T10:47:07.647Z,18.25
2023-03-02T10:49:39.418Z,17.77
2023-03-02T10:52:14.855Z,17.27
2023-03-02T10:54:44.361Z,18.35
2023-03-02T10:57:29.996Z,17.60
2023-03-02T11:00:08.179Z,16.52
2023-03-02T11:02:38.916Z,18.65
2023-03-02T11:05:20.556Z,19.95
2023-03-02T11:07:57.305Z,16.20
2023-03-02T11:10:29.171Z,19.27
2023-03-02T11:12:58.605Z,16.38
2023-03-02T11:15:37.174Z,18.88
2023-03-02T11:18:09.545Z,17.58
2023-03-02T11:20:41.439Z,16.55
2023-03-02T11:23:15.960Z,15.10
2023-03-02T11:25:51.180Z,16.65
2023-03-02T11:28:32.931Z,14.20
2023-03-02T11:31:03.559Z,17.70
2023-03-02T11:33:37.270Z,16.85
2023-03-02T11:36:18.780Z,16.20
2023-03-02T11:38:54.048Z,15.07
2023-03-02T11:41:34.232Z,19.27
2023-03-02T11:44:04.823Z,17.58
2023-03-02T11:46:35.293Z,19.25
2023-03-02T11:49:09.290Z,16.40
2023-03-02T11:51:47.141Z,18.88
2023-03-02T11:54:37.880Z,16.85
2023-03-02T11:57:07.467Z,15.40
2023-03-02T11:59:37.421Z,16.52
2023-03-02T12:02:06.927Z,16.35
2023-03-02T12:04:37.575Z,15.40
2023-03-02T12:07:22.975Z,16.27
2023-03-02T12:10:00.364Z,14.95
2023-03-02T12:12:29.594Z,12.93
2023-03-02T12:14:58.961Z,15.57
2023-03-02T12:17:28.283Z,13.85
2023-03-02T12:20:09.938Z,13.70
2023-03-02T12:22:41.339Z,15.13
2023-03-02T12:25:10.919Z,17.93
2023-03-02T12:27:42.309Z,17.77
2023-03-02T12:30:26.821Z,14.30
2023-03-02T12:33:04.875Z,14.65
2023-03-02T12:35:35.781Z,14.13
2023-03-02T12:38:09.410Z,15.35
2023-03-02T12:40:41.811Z,14.05
2023-03-02T12:43:11.110Z,16.15
2023-03-02T12:45:40.463Z,14.70
2023-03-02T12:48:42.862Z,15.38
2023-03-02T12:51:24.092Z,16.17
2023-03-02T12:54:04.505Z,15.98
2023-03-02T12:56:34.188Z,17.65
2023-03-02T12:59:03.739Z,14.00
2023-03-02T13:01:34.595Z,16.88
2023-03-02T13:04:03.972Z,17.40
2023-03-02T13:06:34.658Z,13.65
2023-03-02T13:09:04.138Z,16.60
2023-03-02T13:11:35.067Z,16.10
2023-03-02T13:14:05.679Z,16.67
2023-03-02T13:16:37.590Z,15.55
2023-03-02T13:19:12.324Z,16.80
2023-03-02T13:21:42.018Z,12.27
2023-03-02T13:24:23.422Z,13.73
2023-03-02T13:26:58.139Z,11.65
2023-03-02T13:29:31.896Z,14.10
2023-03-02T13:32:13.441Z,15.25
2023-03-02T13:34:59.047Z,13.30
2023-03-02T13:37:40.669Z,14.45
2023-03-02T13:40:30.225Z,12.63
2023-03-02T13:42:59.673Z,13.38
2023-03-02T13:45:28.998Z,13.82
2023-03-02T13:47:59.287Z,15.30
2023-03-02T13:50:29.866Z,10.65
2023-03-02T13:53:00.642Z,12.70
2023-03-02T13:55:30.106Z,14.70
2023-03-02T13:58:00.003Z,16.42
2023-03-02T14:00:31.557Z,14.73
2023-03-02T14:03:01.219Z,13.27
2023-03-02T14:05:33.359Z,13.38
2023-03-02T14:08:03.238Z,14.57
2023-03-02T14:10:32.591Z,14.65
2023-03-02T14:13:07.444Z,15.85
2023-03-02T14:15:37.745Z,17.25
2023-03-02T14:18:11.903Z,11.88
2023-03-02T14:20:41.183Z,12.80
2023-03-02T14:23:11.348Z,11.90
2023-03-02T14:25:40.949Z,15.20
2023-03-02T14:28:12.974Z,13.82
2023-03-02T14:30:44.964Z,12.65
2023-03-02T14:33:18.692Z,14.05
2023-03-02T14:35:48.172Z,11.95
2023-03-02T14:38:17.616Z,10.85
2023-03-02T14:40:48.495Z,13.00
2023-03-02T14:43:18.608Z,11.63
2023-03-02T14:45:48.274Z,14.48
2023-03-02T14:48:17.662Z,12.30
2023-03-02T14:50:49.007Z,13.23
2023-03-02T14:53:23.330Z,14.20
2023-03-02T14:55:52.638Z,15.43
2023-03-02T14:58:26.884Z,12.77
2023-03-02T15:00:56.178Z,12.77
2023-03-02T15:03:25.761Z,13.52
2023-03-02T15:06:01.284Z,14.20
2023-03-02T15:08:31.617Z,13.63
2023-03-02T15:11:00.959Z,14.10
2023-03-02T15:13:30.223Z,13.25
2023-03-02T15:15:59.662Z,12.35
2023-03-02T15:18:29.005Z,11.30
2023-03-02T15:20:58.285Z,12.35
2023-03-02T15:23:27.647Z,14.75
2023-03-02T15:26:01.189Z,14.90
2023-03-02T15:28:30.603Z,12.38
2023-03-02T15:31:00.062Z,16.70
2023-03-02T15:33:29.521Z,13.13
2023-03-02T15:36:00.133Z,13.55
2023-03-02T15:38:29.769Z,10.65
2023-03-02T15:40:59.054Z,11.98
2023-03-02T15:43:28.346Z,12.43
2023-03-02T15:45:57.750Z,14.85
2023-03-02T15:48:27.127Z,13.98
2023-03-02T15:51:00.664Z,15.68
2023-03-02T15:53:30.820Z,13.93
2023-03-02T15:56:00.117Z,11.27
2023-03-02T15:58:29.384Z,12.15
2023-03-02T16:00:59.042Z,12.00
2023-03-02T16:03:28.736Z,13.27
2023-03-02T16:06:00.508Z,13.88
2023-03-02T16:08:30.139Z,11.65
2023-03-02T16:11:00.730Z,11.18
2023-03-02T16:13:30.532Z,10.63
2023-03-02T16:15:59.945Z,11.75
2023-03-02T16:18:29.249Z,13.88
2023-03-02T16:20:58.530Z,12.85
2023-03-02T16:23:27.781Z,10.73
2023-03-02T16:25:57.075Z,12.45
2023-03-02T16:28:26.409Z,9.98
2023-03-02T16:31:05.146Z,11.60
2023-03-02T16:33:34.511Z,10.85
2023-03-02T16:36:03.806Z,11.32
2023-03-02T16:38:33.510Z,14.85
2023-03-02T16:41:02.979Z,12.98
2023-03-02T16:43:35.028Z,10.38
2023-03-02T16:46:04.334Z,9.65
2023-03-02T16:48:33.684Z,9.75
2023-03-02T16:51:03.394Z,12.18
2023-03-02T16:53:32.779Z,10.38
2023-03-02T16:56:02.088Z,11.65
2023-03-02T16:58:31.616Z,10.90
2023-03-02T17:01:01.065Z,10.65
2023-03-02T17:03:30.385Z,10.95
2023-03-02T17:05:59.611Z,13.90
2023-03-02T17:08:28.974Z,10.10
2023-03-02T17:10:58.395Z,12.82
2023-03-02T17:13:27.678Z,11.82
2023-03-02T17:15:57.472Z,12.65
2023-03-02T17:18:27.639Z,12.40
2023-03-02T17:20:58.398Z,14.73
2023-03-02T17:23:28.073Z,12.82
2023-03-02T17:25:57.674Z,12.57
2023-03-02T17:28:26.996Z,12.18
2023-03-02T17:30:56.331Z,13.40
2023-03-02T17:33:25.834Z,14.88
2023-03-02T17:35:55.189Z,16.00
2023-03-02T17:38:24.695Z,16.48
2023-03-02T17:40:53.960Z,17.25
2023-03-02T17:43:23.436Z,21.50
2023-03-02T17:45:52.723Z,16.77
2023-03-02T17:48:22.065Z,19.23
2023-03-02T17:50:51.326Z,19.67
2023-03-02T17:53:20.617Z,21.92
2023-03-02T17:55:49.921Z,20.17
2023-03-02T17:58:19.473Z,21.38
2023-03-02T18:00:48.850Z,19.90
2023-03-02T18:03:19.755Z,24.83
2023-03-02T18:05:49.119Z,23.05
2023-03-02T18:08:18.499Z,23.77
2023-03-02T18:10:47.862Z,19.15
2023-03-02T18:13:17.356Z,20.63
2023-03-02T18:15:46.941Z,20.90
2023-03-02T18:18:16.268Z,17.58
2023-03-02T18:20:45.599Z,19.23
2023-03-02T18:23:15.465Z,22.85
2023-03-02T18:25:45.460Z,19.17
2023-03-02T18:28:14.754Z,22.75
2023-03-02T18:30:44.347Z,20.83
2023-03-02T18:33:13.792Z,19.35
2023-03-02T18:35:43.192Z,20.90
2023-03-02T18:38:12.448Z,21.33
2023-03-02T18:40:41.828Z,25.85
2023-03-02T18:43:11.220Z,23.48
2023-03-02T18:45:41.627Z,17.33
2023-03-02T18:48:11.431Z,26.38
2023-03-02T18:50:40.750Z,26.35
2023-03-02T18:53:12.810Z,24.42
2023-03-02T18:55:42.996Z,22.05
2023-03-02T18:58:19.007Z,23.95
2023-03-02T19:00:48.586Z,21.75
2023-03-02T19:03:19.385Z,21.88
2023-03-02T19:05:48.713Z,26.42
2023-03-02T19:08:18.041Z,24.25
2023-03-02T19:10:47.466Z,22.05
2023-03-02T19:13:16.762Z,28.55
2023-03-02T19:15:46.443Z,25.95
2023-03-02T19:18:19.318Z,26.10
2023-03-02T19:20:49.083Z,27.67
2023-03-02T19:23:19.292Z,25.13
2023-03-02T19:25:48.905Z,27.33
2023-03-02T19:28:18.406Z,25.38
2023-03-02T19:30:47.680Z,23.98
2023-03-02T19:33:16.998Z,29.48
2023-03-02T19:35:46.832Z,24.45
2023-03-02T19:38:16.150Z,26.98
2023-03-02T19:40:45.433Z,28.67
2023-03-02T19:43:14.718Z,26.42
2023-03-02T19:45:44.216Z,26.67
2023-03-02T19:48:13.663Z,27.58
2023-03-02T19:50:43.417Z,33.10
2023-03-02T19:53:12.711Z,26.92
2023-03-02T19:55:42.617Z,29.52
2023-03-02T19:58:17.206Z,30.50
2023-03-02T20:00:47.672Z,25.48
2023-03-02T20:03:17.185Z,25.05
2023-03-02T20:05:46.427Z,29.80
2023-03-02T20:08:16.856Z,28.40
2023-03-02T20:10:49.500Z,29.63
2023-03-02T20:13:19.475Z,29.02
2023-03-02T20:15:49.581Z,31.52
2023-03-02T20:18:20.560Z,26.23
2023-03-02T20:20:49.805Z,32.25
2023-03-02T20:23:19.545Z,30.63
2023-03-02T20:25:48.897Z,29.33
2023-03-02T20:28:19.440Z,29.40
2023-03-02T20:30:51.472Z,33.60
2023-03-02T20:33:21.385Z,32.75
2023-03-02T20:35:51.151Z,26.45
2023-03-02T20:38:29.525Z,29.80
2023-03-02T20:40:59.156Z,30.05
2023-03-02T20:43:28.589Z,32.15
2023-03-02T20:45:57.840Z,31.80
2023-03-02T20:48:27.615Z,28.23
2023-03-02T20:50:56.924Z,29.40
2023-03-02T20:53:26.320Z,25.33
2023-03-02T20:55:55.772Z,31.50
2023-03-02T20:58:25.133Z,33.17
2023-03-02T21:00:55.907Z,32.17
2023-03-02T21:03:25.565Z,33.10
2023-03-02T21:05:54.933Z,34.33
2023-03-02T21:08:24.351Z,29.55
2023-03-02T21:10:53.779Z,36.97
2023-03-02T21:13:23.186Z,27.27
2023-03-02T21:15:52.819Z,29.10
2023-03-02T21:18:22.176Z,24.25
2023-03-02T21:20:51.510Z,27.20
2023-03-02T21:23:20.795Z,27.55
2023-03-02T21:25:50.386Z,30.75
2023-03-02T21:28:19.752Z,33.72
2023-03-02T21:30:49.290Z,30.73
2023-03-02T21:33:18.719Z,27.38
2023-03-02T21:35:48.774Z,29.95
2023-03-02T21:38:18.097Z,31.00
2023-03-02T21:40:48.538Z,28.40
2023-03-02T21:43:18.473Z,29.75
2023-03-02T21:45:47.795Z,28.73
2023-03-02T21:48:17.822Z,32.88
2023-03-02T21:50:47.107Z,35.45
2023-03-02T21:53:17.152Z,30.63
2023-03-02T21:55:47.855Z,30.70
2023-03-02T21:58:17.239Z,31.98
2023-03-02T22:00:46.668Z,32.75
2023-03-02T22:03:16.654Z,36.05
2023-03-02T22:05:49.265Z,36.78
2023-03-02T22:08:22.355Z,32.92
2023-03-02T22:10:52.833Z,33.92
2023-03-02T22:13:24.880Z,29.48
2023-03-02T22:15:59.454Z,26.05
2023-03-02T22:18:29.183Z,26.65
2023-03-02T22:20:58.455Z,35.38
2023-03-02T22:23:29.218Z,30.70
2023-03-02T22:26:03.698Z,30.30
2023-03-02T22:28:34.196Z,34.28
2023-03-02T22:31:06.167Z,32.20
2023-03-02T22:33:36.695Z,30.23
2023-03-02T22:36:13.992Z,26.75
2023-03-02T22:38:43.415Z,31.90
2023-03-02T22:41:16.457Z,34.95
2023-03-02T22:43:45.760Z,32.75
2023-03-02T22:46:20.254Z,40.58
2023-03-02T22:48:50.832Z,35.75
2023-03-02T22:51:20.210Z,45.60
2023-03-02T22:53:51.773Z,34.20
2023-03-02T22:56:30.431Z,32.63
2023-03-02T22:59:02.772Z,35.65
2023-03-02T23:01:42.687Z,32.67
2023-03-02T23:04:11.972Z,35.40
2023-03-02T23:06:45.355Z,33.80
2023-03-02T23:09:20.969Z,30.33
2023-03-02T23:11:50.978Z,39.30
2023-03-02T23:14:30.807Z,36.22
2023-03-02T23:17:01.522Z,35.63
2023-03-02T23:19:32.055Z,33.58
2023-03-02T23:22:04.384Z,36.40
2023-03-02T23:24:33.705Z,34.50
2023-03-02T23:27:02.986Z,41.97
2023-03-02T23:29:33.472Z,44.00
2023-03-02T23:32:02.882Z,39.10
2023-03-02T23:34:32.526Z,38.63
2023-03-02T23:37:02.298Z,36.42
2023-03-02T23:39:31.603Z,36.20
2023-03-02T23:42:00.929Z,38.55
2023-03-02T23:44:30.373Z,43.63
2023-03-02T23:46:59.649Z,45.03
2023-03-02T23:49:28.959Z,39.55
2023-03-02T23:51:58.698Z,41.83
2023-03-02T23:54:28.102Z,43.00
2023-03-02T23:56:57.383Z,31.67
2023-03-02T23:59:26.641Z,39.28
